Data for 10/17/2017

Time Sea-Level Adjusted Pressure Absolute Pressure Temperature Relative Humidity Dew Point   
(mb) (inHg) (mb) (inHg) (C) (F) (%) (C) (F)
00:05 1023 30.21 852 25.16 6.6 43.9 42 -5.5 22
00:10 1023 30.21 852 25.16 6.4 43.5 38 -7 19.4
00:15 1023 30.21 852 25.16 7.7 45.9 36 -6.4 20.5
00:20 1023 30.21 852 25.16 7.7 45.9 35 -6.7 19.9
00:25 1023 30.21 852 25.16 8.1 46.6 33 -7.3 18.8
00:30 1023 30.21 852 25.16 8.4 47.1 33 -7 19.4
00:35 1023 30.21 852 25.16 8.3 46.9 33 -7 19.3
00:40 1023 30.21 852 25.16 8 46.4 36 -6.1 21.1
00:45 1023 30.21 852 25.16 7.4 45.3 36 -6.7 19.9
00:50 1023 30.21 852 25.16 7.3 45.1 39 -5.7 21.7
00:55 1023 30.21 852 25.16 6.9 44.4 41 -5.3 22.4
01:00 1023 30.21 852 25.16 6.4 43.5 42 -5.6 22
01:05 1023 30.21 852 25.16 5.9 42.6 45 -5 23
01:10 1023 30.21 852 25.16 5.1 41.2 47 -5.4 22.3
01:15 1023 30.21 852 25.16 4.9 40.8 46 -5.8 21.6
01:20 1023 30.21 852 25.16 5.3 41.5 44 -6.1 21
01:25 1023 30.21 852 25.16 5.6 42 44 -5.8 21.5
01:30 1023 30.21 852 25.16 5.7 42.3 42 -6.1 20.9
01:35 1023 30.21 852 25.16 6 42.8 41 -6.3 20.7
01:40 1023 30.21 852 25.16 5.9 42.6 42 -6.1 21.1
01:45 1023 30.21 852 25.16 5.7 42.3 43 -6 21.2
01:50 1023 30.21 852 25.16 5.4 41.8 45 -5.6 21.9
01:55 1023 30.21 852 25.16 5.5 42 39 -7.2 19
02:00 1023 30.21 852 25.16 6.7 44 38 -6.6 20.2
02:05 1023 30.21 852 25.16 6.6 43.8 39 -6.4 20.5
02:10 1023 30.21 852 25.16 6.4 43.6 39 -6.4 20.4
02:15 1023 30.21 852 25.16 6.1 43.1 41 -6.3 20.7
02:20 1023 30.21 852 25.16 5.9 42.6 43 -5.6 21.9
02:25 1023 30.21 852 25.16 5.4 41.8 41 -6.6 20
02:30 1023 30.21 852 25.16 5.5 41.8 42 -6.3 20.6
02:35 1023 30.21 852 25.16 6.1 43 41 -6.1 21
02:40 1023 30.21 852 25.16 5.6 42 41 -6.5 20.3
02:45 1023 30.21 852 25.16 5.7 42.3 41 -6.5 20.4
02:50 1023 30.21 852 25.16 5.9 42.6 42 -5.9 21.4
02:55 1023 30.21 852 25.16 5.7 42.2 43 -5.9 21.4
03:00 1023 30.21 852 25.16 4.9 40.9 47 -5.6 22
03:05 1023 30.21 852 25.16 4.4 39.9 46 -6.3 20.7
03:10 1023 30.21 852 25.16 5 41 42 -7 19.4
03:15 1023 30.21 852 25.16 6.1 43 37 -7.4 18.7
03:20 1023 30.21 852 25.16 6.4 43.4 39 -6.7 20
03:25 1023 30.21 852 25.16 5.9 42.5 40 -6.6 20.2
03:30 1023 30.21 852 25.16 5.9 42.5 41 -6.4 20.4
03:35 1023 30.21 852 25.16 5.5 42 38 -7.7 18.1
03:40 1023 30.21 852 25.16 6.3 43.3 38 -6.9 19.6
03:45 1023 30.21 852 25.16 6.2 43.1 40 -6.5 20.3
03:50 1023 30.21 852 25.16 6.1 42.9 40 -6.6 20.1
03:55 1023 30.21 852 25.16 5.8 42.5 40 -6.6 20.1
04:00 1022 30.18 852 25.16 5.5 42 42 -6.3 20.6
04:05 1022 30.18 852 25.16 5 41 42 -6.8 19.7
04:10 1022 30.18 852 25.16 5.1 41.2 44 -6.1 21.1
04:15 1022 30.18 852 25.16 4.8 40.7 43 -6.9 19.7
04:20 1022 30.18 852 25.16 5.1 41.1 42 -6.8 19.7
04:25 1022 30.18 852 25.16 4.9 40.8 44 -6.4 20.5
04:30 1022 30.18 852 25.16 4.6 40.2 45 -6.5 20.3
04:35 1022 30.18 852 25.16 4.5 40.1 45 -6.5 20.3
04:40 1022 30.18 852 25.16 4.4 40 44 -6.7 19.9
04:45 1022 30.18 852 25.16 4.7 40.4 43 -6.8 19.8
04:50 1022 30.18 852 25.16 5.3 41.6 39 -7.6 18.3
04:55 1022 30.18 852 25.16 5 41 44 -6.3 20.7
05:00 1022 30.18 851 25.13 4.8 40.6 40 -7.7 18.2
05:05 1022 30.18 851 25.13 5.5 41.9 39 -7.5 18.5
05:10 1022 30.18 851 25.13 5.9 42.6 36 -8.1 17.5
05:15 1022 30.18 851 25.13 6 42.7 38 -7.4 18.6
05:20 1022 30.18 851 25.13 5.4 41.8 37 -8 17.6
05:25 1022 30.18 851 25.13 5.4 41.8 41 -6.7 19.9
05:30 1022 30.18 851 25.13 4.6 40.2 42 -7.2 19
05:35 1022 30.18 851 25.13 4.9 40.9 38 -8.2 17.3
05:40 1022 30.18 851 25.13 5.7 42.3 36 -8.1 17.4
05:45 1022 30.18 851 25.13 6.1 42.9 35 -8.1 17.4
05:50 1022 30.18 851 25.13 5.7 42.3 37 -7.7 18.1
05:55 1022 30.18 851 25.13 5.3 41.6 38 -7.7 18.1
06:00 1022 30.18 851 25.13 5.2 41.3 39 -7.6 18.3
06:05 1022 30.18 851 25.13 4.8 40.6 42 -7.1 19.2
06:10 1022 30.18 851 25.13 4.4 39.9 42 -7.3 18.9
06:15 1022 30.18 851 25.13 4.5 40.1 40 -8 17.5
06:20 1022 30.18 851 25.13 5.1 41.3 39 -7.7 18.1
06:25 1022 30.18 851 25.13 5 41.1 40 -7.5 18.5
06:30 1022 30.18 851 25.13 4.9 40.8 40 -7.7 18.1
06:35 1022 30.18 851 25.13 4.9 40.8 39 -7.9 17.8
06:40 1021 30.15 851 25.13 5.3 41.6 37 -8 17.5
06:45 1021 30.15 851 25.13 5.5 41.9 37 -8 17.6
06:50 1021 30.15 851 25.13 5.4 41.7 39 -7.5 18.4
06:55 1021 30.15 851 25.13 5.2 41.3 39 -7.7 18.1
07:00 1021 30.15 851 25.13 5 40.9 39 -8 17.7
07:05 1021 30.15 851 25.13 5.1 41.2 38 -7.9 17.8
07:10 1021 30.15 850 25.1 5.1 41.1 39 -7.9 17.8
07:15 1021 30.15 850 25.1 5.5 41.9 40 -7.2 19.1
07:20 1021 30.15 850 25.1 4.4 39.9 44 -6.9 19.6
07:25 1021 30.15 850 25.1 4.2 39.5 44 -7.1 19.3
07:30 1021 30.15 850 25.1 3.9 38.9 44 -7.3 18.9
07:35 1021 30.15 850 25.1 4.2 39.6 40 -8.3 17.1
07:40 1021 30.15 850 25.1 5.1 41.2 37 -8.3 17
07:45 1021 30.15 850 25.1 5.5 41.9 35 -8.6 16.5
07:50 1021 30.15 850 25.1 5.8 42.4 35 -8.4 17
07:55 1021 30.15 850 25.1 5.5 41.9 35 -8.7 16.3
08:00 1021 30.15 850 25.1 5.7 42.2 37 -7.9 17.7
08:05 1021 30.15 850 25.1 5.1 41.2 38 -8.1 17.4
08:10 1021 30.15 850 25.1 5.1 41.2 38 -7.9 17.7
08:15 1021 30.15 850 25.1 4.9 40.9 38 -8.1 17.3
08:20 1021 30.15 850 25.1 5.1 41.2 36 -8.8 16.2
08:25 1021 30.15 850 25.1 5.8 42.5 34 -9 15.8
08:30 1021 30.15 850 25.1 6.4 43.5 34 -8.4 16.9
08:35 1021 30.15 850 25.1 6.4 43.6 34 -8.5 16.8
08:40 1021 30.15 850 25.1 6.5 43.8 33 -8.6 16.6
08:45 1021 30.15 850 25.1 6.7 44.1 33 -8.6 16.5
08:50 1021 30.15 850 25.1 7.1 44.7 32 -8.7 16.4
08:55 1021 30.15 850 25.1 7.3 45.1 33 -8 17.5
09:00 1021 30.15 850 25.1 7.1 44.8 33 -7.9 17.8
09:05 1021 30.15 850 25.1 7.3 45.2 33 -8.1 17.4
09:10 1021 30.15 850 25.1 7.7 45.9 32 -8 17.7
09:15 1021 30.15 850 25.1 8 46.3 32 -7.7 18.1
09:20 1021 30.15 850 25.1 8.2 46.7 33 -7.3 18.9
09:25 1021 30.15 850 25.1 8.5 47.4 31 -7.4 18.6
09:30 1021 30.15 850 25.1 9.1 48.4 31 -7.1 19.2
09:35 1021 30.15 850 25.1 9.7 49.4 31 -6.7 20
09:40 1021 30.15 850 25.1 9.6 49.4 31 -6.5 20.3
09:45 1021 30.15 850 25.1 9.6 49.3 32 -6.2 20.8
09:50 1021 30.15 850 25.1 10.1 50.3 31 -6.2 20.8
09:55 1021 30.15 850 25.1 10.6 51 30 -6.4 20.4
10:00 1021 30.15 850 25.1 10.9 51.6 30 -6.1 21.1
10:05 1020 30.12 850 25.1 11.6 53 29 -6 21.3
10:10 1020 30.12 850 25.1 12.1 53.7 27 -6.2 20.8
10:15 1020 30.12 849 25.07 13 55.5 26 -5.9 21.4
10:20 1020 30.12 849 25.07 13.3 55.9 24 -6.9 19.5
10:25 1020 30.12 849 25.07 13.4 56.2 24 -6.9 19.5
10:30 1020 30.12 849 25.07 13.9 56.9 21 -7.8 17.9
10:35 1020 30.12 849 25.07 14.1 57.3 22 -7.5 18.5
10:40 1020 30.12 849 25.07 14.7 58.4 20 -8.1 17.4
10:45 1020 30.12 849 25.07 14.1 57.4 20 -8.8 16.1
10:50 1020 30.12 849 25.07 13.8 56.9 18 -9.8 14.4
10:55 1020 30.12 849 25.07 14.2 57.5 19 -8.8 16.2
11:00 1020 30.12 849 25.07 14.5 58 20 -8.2 17.2
11:05 1020 30.12 849 25.07 14.3 57.7 19 -9 15.9
11:10 1020 30.12 849 25.07 15.3 59.5 18 -9.1 15.6
11:15 1020 30.12 849 25.07 15.5 59.9 18 -8.6 16.5
11:20 1020 30.12 849 25.07 15.8 60.4 18 -8.5 16.7
11:25 1019 30.09 849 25.07 16.2 61.1 18 -8.1 17.4
11:30 1019 30.09 849 25.07 16 60.8 18 -8.4 16.9
11:35 1019 30.09 848 25.04 16.3 61.4 17 -8.5 16.7
11:40 1019 30.09 848 25.04 16.8 62.3 17 -8.5 16.7
11:45 1019 30.09 848 25.04 16.2 61.2 18 -7.8 17.9
11:50 1019 30.09 848 25.04 16.5 61.6 18 -8.1 17.4
11:55 1019 30.09 848 25.04 17 62.5 17 -8.1 17.4
12:00 1019 30.09 848 25.04 17.4 63.4 15 -9.4 15.1
12:05 1019 30.09 848 25.04 17.4 63.3 16 -8.9 16
12:10 1019 30.09 848 25.04 17.9 64.2 15 -8.6 16.5
12:15 1019 30.09 848 25.04 18 64.3 17 -7.3 18.8
12:20 1018 30.06 848 25.04 17.7 63.8 15 -8.9 16
12:25 1018 30.06 848 25.04 18.6 65.5 15 -8.1 17.4
12:30 1018 30.06 848 25.04 18.4 65.1 17 -7.3 18.9
12:35 1018 30.06 847 25.01 18.3 65 19 -5.6 22
12:40 1018 30.06 847 25.01 19.4 66.9 16 -6.7 19.9
12:45 1018 30.06 847 25.01 19.1 66.3 15 -7.7 18.1
12:50 1018 30.06 847 25.01 19.3 66.7 15 -7.9 17.8
12:55 1018 30.06 847 25.01 19.7 67.5 15 -7.4 18.7
13:00 1018 30.06 847 25.01 19.9 67.8 15 -7.6 18.3
13:05 1018 30.06 847 25.01 20.6 69.1 14 -7.6 18.3
13:10 1017 30.03 847 25.01 21.3 70.3 13 -8.1 17.4
13:15 1017 30.03 847 25.01 21.6 71 13 -7.9 17.7
13:20 1017 30.03 846 24.98 21.8 71.2 14 -7.2 19
13:25 1017 30.03 846 24.98 21.5 70.7 11 -10.5 13.1
13:30 1017 30.03 846 24.98 21.3 70.3 11 -10.6 12.9
13:35 1017 30.03 846 24.98 21.3 70.4 11 -10.4 13.3
13:40 1017 30.03 846 24.98 21.1 69.9 11 -10.4 13.2
13:45 1017 30.03 846 24.98 20.8 69.4 11 -10.1 13.8
13:50 1017 30.03 846 24.98 20.5 68.9 11 -10.6 12.9
13:55 1016 30 846 24.98 20.3 68.6 12 -10.3 13.5
14:00 1016 30 846 24.98 20.2 68.3 11 -11 12.2
14:05 1016 30 846 24.98 20.1 68.1 12 -10.3 13.5
14:10 1016 30 845 24.95 20.1 68.1 12 -10.1 13.8
14:15 1016 30 845 24.95 20.2 68.3 12 -9.9 14.1
14:20 1016 30 845 24.95 20.3 68.6 12 -10.1 13.8
14:25 1016 30 845 24.95 20.6 69 11 -10.6 12.8
14:30 1016 30 845 24.95 20.5 69 11 -10.7 12.8
14:35 1016 30 845 24.95 20.5 68.8 11 -10.5 13
14:40 1016 30 845 24.95 20.3 68.5 12 -10.1 13.8
14:45 1016 30 845 24.95 20.2 68.3 11 -10.9 12.4
14:50 1016 30 845 24.95 20.2 68.4 12 -9.8 14.3
14:55 1016 30 845 24.95 20.2 68.4 13 -9.3 15.2
15:00 1016 30 845 24.95 20.3 68.5 12 -9.7 14.5
15:05 1016 30 845 24.95 20.4 68.8 12 -9.7 14.5
15:10 1015 29.97 845 24.95 20.5 68.8 11 -10.4 13.3
15:15 1015 29.97 845 24.95 20.6 69 12 -10.2 13.7
15:20 1015 29.97 845 24.95 20.6 69.2 11 -10.4 13.3
15:25 1015 29.97 845 24.95 20.5 68.9 11 -11.1 12.1
15:30 1015 29.97 845 24.95 20.4 68.8 11 -10.5 13
15:35 1015 29.97 845 24.95 20.4 68.6 12 -10.3 13.5
15:40 1015 29.97 845 24.95 20.3 68.5 12 -10.4 13.2
15:45 1015 29.97 845 24.95 20.2 68.3 12 -10.2 13.6
15:50 1015 29.97 845 24.95 20.2 68.3 12 -10.2 13.7
15:55 1015 29.97 845 24.95 20.3 68.5 12 -10.2 13.6
16:00 1015 29.97 845 24.95 20.3 68.6 12 -10.2 13.6
16:05 1015 29.97 844 24.92 20.4 68.8 11 -10.5 13.1
16:10 1015 29.97 844 24.92 20.5 68.8 12 -10 13.9
16:15 1015 29.97 844 24.92 20.4 68.8 12 -10.2 13.7
16:20 1015 29.97 844 24.92 20.3 68.6 11 -10.6 12.9
16:25 1015 29.97 844 24.92 20.5 68.8 12 -10.2 13.6
16:30 1015 29.97 844 24.92 20.3 68.5 12 -10.2 13.7
16:35 1015 29.97 844 24.92 20.3 68.5 12 -9.6 14.8
16:40 1015 29.97 844 24.92 20.3 68.5 12 -10.1 13.9
16:45 1015 29.97 844 24.92 20.4 68.8 12 -9.8 14.4
16:50 1015 29.97 844 24.92 20.4 68.8 12 -10 14
16:55 1015 29.97 844 24.92 20.5 69 11 -10.3 13.5
17:00 1015 29.97 844 24.92 20.4 68.6 12 -9.8 14.4
17:05 1015 29.97 844 24.92 20.3 68.5 12 -10.3 13.5
17:10 1015 29.97 844 24.92 20.2 68.4 12 -10.3 13.4
17:15 1015 29.97 844 24.92 20 68 12 -9.9 14.2
17:20 1015 29.97 844 24.92 19.8 67.6 12 -9.9 14.1
17:25 1015 29.97 844 24.92 19.6 67.2 12 -10.1 13.9
17:30 1015 29.97 844 24.92 19.5 67.1 12 -10.2 13.7
17:35 1015 29.97 844 24.92 19.4 67 12 -10.4 13.2
17:40 1014 29.94 844 24.92 19.4 66.9 13 -10.1 13.8
17:45 1015 29.97 844 24.92 19.4 66.9 13 -10 14.1
17:50 1015 29.97 844 24.92 19.5 67 12 -10.1 13.8
17:55 1015 29.97 844 24.92 19.5 67 12 -10.2 13.7
18:00 1014 29.94 844 24.92 19.4 66.9 13 -10 13.9
18:05 1014 29.94 844 24.92 19.3 66.7 12 -10.2 13.6
18:10 1014 29.94 844 24.92 19.1 66.3 13 -9.9 14.3
18:15 1014 29.94 844 24.92 18.9 65.9 13 -10 14
18:20 1014 29.94 844 24.92 18.5 65.4 13 -9.9 14.2
18:25 1014 29.94 844 24.92 18.3 65 13 -10.3 13.5
18:30 1014 29.94 844 24.92 18.1 64.5 14 -9.9 14.2
18:35 1014 29.94 844 24.92 17.8 64.1 14 -10.4 13.3
18:40 1014 29.94 844 24.92 17.7 63.9 13 -10.6 13
18:45 1014 29.94 844 24.92 17.6 63.6 13 -10.7 12.8
18:50 1014 29.94 844 24.92 17.3 63.2 14 -10.6 12.8
18:55 1014 29.94 843 24.89 17.2 63 13 -11 12.1
19:00 1014 29.94 843 24.89 17.2 63 13 -11 12.2
19:05 1014 29.94 843 24.89 17.2 63 13 -11.1 11.9
19:10 1014 29.94 843 24.89 17.1 62.7 14 -10.9 12.4
19:15 1014 29.94 843 24.89 16.8 62.3 14 -10.6 12.9
19:20 1014 29.94 843 24.89 16.6 61.9 14 -10.9 12.4
19:25 1014 29.94 843 24.89 16.6 61.8 14 -11 12.2
19:30 1014 29.94 843 24.89 16.5 61.6 14 -10.8 12.6
19:35 1014 29.94 843 24.89 16.4 61.4 14 -10.8 12.6
19:40 1014 29.94 843 24.89 16.3 61.4 14 -11.2 11.9
19:45 1014 29.94 843 24.89 16.7 62 14 -11.3 11.6
19:50 1014 29.94 844 24.92 16.7 62 14 -10.9 12.4
19:55 1015 29.97 844 24.92 16.5 61.7 15 -10.6 12.9
20:00 1014 29.94 844 24.92 16.1 60.9 15 -10.5 13.2
20:05 1014 29.94 844 24.92 15.8 60.5 15 -11.1 12
20:10 1014 29.94 844 24.92 16.2 61.1 14 -10.9 12.4
20:15 1015 29.97 844 24.92 16.2 61.1 15 -10.8 12.5
20:20 1015 29.97 844 24.92 15.8 60.5 15 -10.5 13
20:25 1015 29.97 844 24.92 15.6 60 15 -10.7 12.8
20:30 1015 29.97 844 24.92 15.1 59.1 18 -9.1 15.7
20:35 1015 29.97 844 24.92 14.3 57.8 18 -9.7 14.5
20:40 1015 29.97 844 24.92 14.7 58.5 16 -10.9 12.4
20:45 1015 29.97 844 24.92 15.2 59.3 18 -9.3 15.3
20:50 1015 29.97 844 24.92 14.7 58.5 20 -8.2 17.3
20:55 1015 29.97 844 24.92 13.9 57.1 19 -9.1 15.7
21:00 1015 29.97 844 24.92 13.6 56.5 20 -9.1 15.7
21:05 1015 29.97 844 24.92 13.4 56.1 21 -8.8 16.2
21:10 1015 29.97 844 24.92 13.5 56.2 20 -9 15.7
21:15 1015 29.97 844 24.92 13.6 56.4 19 -9.3 15.2
21:20 1015 29.97 844 24.92 13.8 56.9 19 -9.6 14.6
21:25 1015 29.97 844 24.92 14.1 57.4 18 -9.7 14.5
21:30 1015 29.97 844 24.92 14.2 57.5 19 -9.3 15.2
21:35 1015 29.97 844 24.92 14 57.2 19 -9.2 15.4
21:40 1015 29.97 845 24.95 13.9 56.9 19 -9.2 15.4
21:45 1015 29.97 845 24.95 13.9 57.1 20 -8.9 15.9
21:50 1016 30 845 24.95 13.7 56.6 20 -9.2 15.5
21:55 1016 30 845 24.95 13.7 56.7 19 -9.7 14.5
22:00 1016 30 845 24.95 13.8 56.9 21 -8.4 16.9
22:05 1016 30 845 24.95 13.7 56.6 19 -9.4 15
22:10 1016 30 845 24.95 13.4 56.2 22 -8.1 17.4
22:15 1016 30 845 24.95 12.7 54.8 22 -8.8 16.2
22:20 1016 30 845 24.95 12.2 53.9 22 -9.2 15.5
22:25 1016 30 845 24.95 12.6 54.7 22 -8.7 16.4
22:30 1016 30 845 24.95 11.7 53.1 24 -8.1 17.5
22:35 1016 30 845 24.95 11.1 52 24 -8.7 16.4
22:40 1016 30 846 24.98 11.5 52.8 23 -8.9 16.1
22:45 1016 30 846 24.98 11.8 53.3 22 -9 15.7
22:50 1017 30.03 846 24.98 12.1 53.8 21 -9.5 14.8
22:55 1017 30.03 846 24.98 12.9 55.1 19 -9.9 14.2
23:00 1017 30.03 846 24.98 13.7 56.7 18 -10 14.1
23:05 1017 30.03 846 24.98 14.1 57.3 19 -9.4 15
23:10 1017 30.03 846 24.98 14 57.2 18 -9.7 14.6
23:15 1017 30.03 846 24.98 14.1 57.4 18 -9.9 14.1
23:20 1017 30.03 846 24.98 14.3 57.7 18 -9.9 14.2
23:25 1017 30.03 846 24.98 14.3 57.7 18 -9.5 14.9
23:30 1017 30.03 846 24.98 14.2 57.5 18 -9.7 14.5
23:35 1017 30.03 846 24.98 14.2 57.6 18 -9.6 14.7
23:40 1017 30.03 846 24.98 14.3 57.7 18 -9.8 14.3
23:45 1017 30.03 846 24.98 14.1 57.4 19 -9.2 15.4
23:50 1017 30.03 846 24.98 13.7 56.6 20 -9.1 15.6
23:55 1017 30.03 846 24.98 13.3 56 20 -9.2 15.4
24:00 1017 30.03 846 24.98 12.8 55 22 -8.2 17.2